Time;durP1;ratioP1;P1;durP2;ratioP2;P2;SDS_P1;SDS_P2;PMS_P1;PMS_P2;Temp;Humidity;BMP_temperature;BMP_pressure;BME280_temperature;BME280_humidity;BME280_pressure;Samples;Min_cycle;Max_cycle;Signal;HPM_P1;HPM_P2
2021/04/16 00:00:16;;;;;;;8.73;7.70;;;3.80;99.90;;;;;;4991743;28;20461;-72
2021/04/16 00:02:42;;;;;;;9.90;6.67;;;3.80;99.90;;;;;;4990999;28;20398;-72
2021/04/16 00:05:08;;;;;;;9.30;7.57;;;3.80;99.90;;;;;;4991389;28;20506;-72
2021/04/16 00:07:34;;;;;;;11.80;6.73;;;3.80;99.90;;;;;;4990879;28;20174;-72
2021/04/16 00:10:00;;;;;;;9.20;7.10;;;3.90;99.90;;;;;;4991032;28;20394;-72
2021/04/16 00:12:26;;;;;;;9.50;7.13;;;3.90;99.90;;;;;;4990858;28;20634;-72
2021/04/16 00:14:52;;;;;;;8.23;7.50;;;3.90;99.90;;;;;;4991827;28;20450;-72
2021/04/16 00:17:17;;;;;;;8.10;6.63;;;3.90;99.90;;;;;;4991003;28;20402;-72
2021/04/16 00:19:43;;;;;;;9.37;7.03;;;3.90;99.90;;;;;;4990991;28;20253;-72
2021/04/16 00:22:09;;;;;;;8.77;7.87;;;3.90;99.90;;;;;;4991324;28;20179;-72
2021/04/16 00:24:34;;;;;;;12.77;9.10;;;3.90;99.90;;;;;;4990670;28;20559;-72
2021/04/16 00:27:00;;;;;;;9.30;7.23;;;4.00;99.90;;;;;;4990800;28;20449;-72
2021/04/16 00:29:25;;;;;;;8.43;7.50;;;4.00;99.90;;;;;;4992209;28;20159;-72
2021/04/16 00:31:51;;;;;;;9.40;7.50;;;4.10;99.90;;;;;;4990959;28;20155;-72
2021/04/16 00:34:18;;;;;;;8.63;7.73;;;4.10;99.90;;;;;;4990528;28;20159;-72
2021/04/16 00:36:44;;;;;;;7.93;7.13;;;4.20;99.90;;;;;;4990578;28;20159;-72
2021/04/16 00:39:10;;;;;;;10.17;8.17;;;4.20;99.90;;;;;;4991179;28;20439;-72
2021/04/16 00:41:35;;;;;;;7.63;6.67;;;4.20;99.90;;;;;;4990647;28;20288;-72
2021/04/16 00:44:01;;;;;;;10.13;7.93;;;4.30;99.90;;;;;;4991791;28;20159;-72
2021/04/16 00:46:40;;;;;;;10.33;6.53;;;4.30;99.90;;;;;;4990624;28;20197;-72
2021/04/16 00:49:08;;;;;;;8.60;6.50;;;4.30;99.90;;;;;;4993742;28;20648;-72
2021/04/16 00:54:19;;;;;;;7.40;6.70;;;4.30;99.90;;;;;;5131401;27;20561;-70
2021/04/16 00:56:47;;;;;;;10.30;8.10;;;4.40;99.90;;;;;;5111562;28;20403;-70
2021/04/16 00:59:13;;;;;;;8.40;7.00;;;4.40;99.90;;;;;;5111194;28;20412;-70
2021/04/16 01:01:39;;;;;;;6.30;5.70;;;4.50;99.90;;;;;;5110683;28;20396;-70
2021/04/16 01:04:05;;;;;;;8.63;7.07;;;4.50;99.90;;;;;;5110575;28;20474;-70
2021/04/16 01:06:31;;;;;;;11.67;7.90;;;4.50;99.90;;;;;;5110562;28;20158;-70
2021/04/16 01:08:56;;;;;;;8.17;7.37;;;4.50;99.90;;;;;;5110516;28;20726;-70
2021/04/16 01:11:22;;;;;;;7.43;6.77;;;4.50;99.90;;;;;;5110744;28;20159;-70
2021/04/16 01:13:48;;;;;;;9.67;7.00;;;4.50;99.90;;;;;;5128487;27;20190;-70
2021/04/16 01:16:18;;;;;;;11.90;7.37;;;4.50;99.90;;;;;;5130889;27;20161;-70
2021/04/16 01:18:48;;;;;;;10.40;7.30;;;4.50;99.90;;;;;;5130785;28;20452;-70
2021/04/16 01:21:23;;;;;;;9.97;6.97;;;4.60;99.90;;;;;;5130765;27;20395;-70
2021/04/16 01:26:43;;;;;;;7.20;6.50;;;4.60;99.90;;;;;;5110587;27;20506;-74
2021/04/16 01:29:08;;;;;;;9.17;7.40;;;4.70;99.90;;;;;;5104405;28;20406;-74
2021/04/16 01:31:34;;;;;;;10.63;7.53;;;4.70;99.90;;;;;;5090565;28;20163;-74
2021/04/16 01:34:00;;;;;;;7.93;6.97;;;4.70;99.90;;;;;;5090303;28;20523;-74
2021/04/16 01:36:30;;;;;;;12.47;7.33;;;4.70;99.90;;;;;;5090114;28;20394;-74
2021/04/16 01:38:57;;;;;;;9.63;6.70;;;4.80;99.90;;;;;;5090452;28;20875;-74
2021/04/16 01:41:26;;;;;;;6.97;6.27;;;4.80;99.90;;;;;;5090429;28;20389;-74
2021/04/16 01:43:57;;;;;;;6.50;5.90;;;4.90;99.90;;;;;;5090588;28;20396;-75
2021/04/16 01:46:23;;;;;;;8.27;7.00;;;4.90;99.90;;;;;;5090506;28;20460;-74
2021/04/16 01:48:53;;;;;;;7.17;6.20;;;4.90;99.90;;;;;;5090116;28;20393;-74
2021/04/16 01:51:23;;;;;;;7.50;6.33;;;5.00;99.90;;;;;;5090264;28;20179;-74
2021/04/16 01:53:49;;;;;;;7.13;6.23;;;5.00;99.90;;;;;;5090291;28;20901;-74
2021/04/16 01:56:15;;;;;;;8.00;7.20;;;5.00;99.90;;;;;;5090054;28;20394;-74
2021/04/16 01:58:41;;;;;;;7.00;6.30;;;5.00;99.90;;;;;;5089855;28;20690;-74
2021/04/16 02:01:09;;;;;;;8.07;6.23;;;5.00;99.90;;;;;;5089757;28;20406;-74
2021/04/16 02:03:34;;;;;;;8.20;7.40;;;5.10;99.90;;;;;;5090724;28;20474;-74
2021/04/16 02:06:01;;;;;;;9.83;6.77;;;5.10;99.90;;;;;;5090007;28;20449;-74
2021/04/16 02:08:27;;;;;;;7.50;6.80;;;5.10;99.90;;;;;;5090115;28;20171;-74
2021/04/16 02:10:52;;;;;;;8.07;6.60;;;5.10;99.90;;;;;;5089947;28;20429;-74
2021/04/16 02:13:18;;;;;;;16.80;7.73;;;5.10;99.90;;;;;;5109988;28;20409;-78
2021/04/16 02:15:46;;;;;;;6.87;6.17;;;5.10;99.90;;;;;;5114968;27;20623;-78
2021/04/16 02:18:14;;;;;;;8.47;6.17;;;5.10;99.90;;;;;;5115866;28;20405;-78
2021/04/16 02:20:39;;;;;;;8.40;6.60;;;5.10;99.90;;;;;;5107506;28;20824;-78
2021/04/16 02:23:05;;;;;;;7.00;6.30;;;5.10;99.90;;;;;;5096843;28;20417;-78
2021/04/16 02:25:31;;;;;;;9.00;7.10;;;5.10;99.90;;;;;;5096161;28;20207;-78
2021/04/16 02:27:58;;;;;;;8.30;7.27;;;5.10;99.90;;;;;;5094900;28;20659;-78
2021/04/16 02:30:30;;;;;;;8.00;7.20;;;5.10;99.90;;;;;;5095088;28;20260;-78
2021/04/16 02:32:56;;;;;;;8.40;6.80;;;5.10;99.90;;;;;;5095994;28;20398;-78
2021/04/16 02:35:22;;;;;;;7.27;6.63;;;5.10;99.90;;;;;;5098138;28;20890;-78
2021/04/16 02:38:09;;;;;;;11.53;7.57;;;5.10;99.90;;;;;;5094388;28;20429;-78
2021/04/16 02:40:34;;;;;;;7.30;6.60;;;5.20;99.90;;;;;;5100915;28;20813;-78
2021/04/16 02:43:00;;;;;;;7.77;6.97;;;5.20;99.90;;;;;;5100607;28;20440;-78
2021/04/16 02:45:26;;;;;;;11.43;6.70;;;5.20;99.90;;;;;;5099793;28;20536;-78
2021/04/16 02:47:53;;;;;;;7.63;6.63;;;5.20;99.90;;;;;;5099179;28;20183;-76
2021/04/16 02:50:23;;;;;;;8.43;7.63;;;5.20;99.90;;;;;;5096017;28;20907;-76
2021/04/16 02:52:48;;;;;;;8.37;6.87;;;5.20;99.90;;;;;;5095837;28;20385;-76
2021/04/16 02:55:15;;;;;;;8.60;7.17;;;5.20;99.90;;;;;;5094750;28;20478;-76
2021/04/16 02:57:40;;;;;;;9.80;7.87;;;5.20;99.90;;;;;;5095681;28;20167;-76
2021/04/16 03:00:08;;;;;;;9.40;7.67;;;5.20;99.90;;;;;;5095444;28;20448;-76
2021/04/16 03:02:34;;;;;;;11.70;7.70;;;5.20;99.90;;;;;;5095329;28;20163;-76
2021/04/16 03:04:59;;;;;;;8.30;6.43;;;5.20;99.90;;;;;;5095717;28;20453;-76
2021/04/16 03:07:25;;;;;;;7.93;7.10;;;5.30;99.90;;;;;;5095394;28;20197;-76
2021/04/16 03:09:50;;;;;;;7.90;7.10;;;5.20;99.90;;;;;;5095192;28;20183;-76
2021/04/16 03:12:16;;;;;;;9.10;7.73;;;5.20;99.90;;;;;;5086821;28;20179;-75
2021/04/16 03:14:41;;;;;;;7.73;6.80;;;5.20;99.90;;;;;;5095225;28;20191;-75
2021/04/16 03:17:07;;;;;;;8.83;7.93;;;5.30;99.90;;;;;;5095402;28;20247;-76
2021/04/16 03:19:33;;;;;;;8.40;7.50;;;5.20;99.90;;;;;;5095300;28;20529;-76
2021/04/16 03:21:58;;;;;;;8.10;7.10;;;5.30;99.90;;;;;;5095000;28;20159;-75
2021/04/16 03:24:24;;;;;;;13.23;8.20;;;5.30;99.90;;;;;;5094756;28;20174;-76
2021/04/16 03:26:50;;;;;;;9.83;8.83;;;5.20;99.90;;;;;;5095180;28;20504;-76
2021/04/16 03:29:15;;;;;;;11.80;7.70;;;5.20;99.90;;;;;;5094078;28;20171;-76
2021/04/16 03:31:41;;;;;;;9.73;8.50;;;5.10;99.90;;;;;;5094865;28;20178;-76
2021/04/16 03:34:08;;;;;;;8.30;7.50;;;5.10;99.90;;;;;;5095319;28;20198;-76
2021/04/16 03:36:34;;;;;;;12.20;9.67;;;5.10;99.90;;;;;;5094805;28;20600;-76
2021/04/16 03:38:59;;;;;;;9.90;8.20;;;5.10;99.90;;;;;;5094719;28;20443;-76
2021/04/16 03:41:25;;;;;;;11.23;8.43;;;5.10;99.90;;;;;;5094742;28;20228;-76
2021/04/16 03:43:51;;;;;;;9.23;7.60;;;5.10;99.90;;;;;;5094554;28;20237;-75
2021/04/16 03:46:17;;;;;;;7.90;7.10;;;5.10;99.90;;;;;;5093653;28;21026;-76
2021/04/16 03:48:42;;;;;;;12.27;8.47;;;5.20;99.90;;;;;;5093486;28;20504;-76
2021/04/16 03:51:09;;;;;;;10.03;8.30;;;5.20;99.90;;;;;;5094428;28;20400;-76
2021/04/16 03:53:37;;;;;;;10.70;8.00;;;5.20;99.90;;;;;;5094497;28;20251;-76
2021/04/16 03:56:04;;;;;;;9.80;7.40;;;5.20;99.90;;;;;;5080940;28;20472;-76
2021/04/16 03:58:29;;;;;;;11.13;8.10;;;5.30;99.90;;;;;;5080336;28;20473;-76
2021/04/16 04:00:55;;;;;;;8.53;7.63;;;5.30;99.90;;;;;;5079334;28;20433;-76
2021/04/16 04:03:21;;;;;;;11.63;8.07;;;5.30;99.90;;;;;;5088372;28;20197;-76
2021/04/16 04:05:47;;;;;;;10.57;7.73;;;5.20;99.90;;;;;;5080021;28;20229;-76
2021/04/16 04:08:12;;;;;;;9.10;8.20;;;5.20;99.90;;;;;;5081118;28;20524;-76
2021/04/16 04:10:38;;;;;;;9.30;8.40;;;5.20;99.90;;;;;;5084281;28;20647;-76
2021/04/16 04:13:07;;;;;;;10.00;9.00;;;5.10;99.90;;;;;;5081645;28;20182;-76
2021/04/16 04:15:33;;;;;;;10.60;8.90;;;5.10;99.90;;;;;;5083568;28;20407;-76
2021/04/16 04:17:59;;;;;;;9.90;8.90;;;5.00;99.90;;;;;;5073426;28;20402;-76
2021/04/16 04:20:28;;;;;;;10.17;9.10;;;5.00;99.90;;;;;;5073881;28;20842;-76
2021/04/16 04:22:53;;;;;;;12.23;9.60;;;4.90;99.90;;;;;;5073433;28;20156;-76
2021/04/16 04:25:22;;;;;;;9.83;8.87;;;4.80;99.90;;;;;;5073599;28;20621;-76
2021/04/16 04:27:50;;;;;;;8.83;7.83;;;4.80;99.90;;;;;;5073667;28;20307;-76
2021/04/16 04:30:19;;;;;;;10.87;9.03;;;4.70;99.90;;;;;;5073701;28;20409;-76
2021/04/16 04:32:45;;;;;;;10.37;9.00;;;4.70;99.90;;;;;;5073887;28;20456;-76
2021/04/16 04:35:10;;;;;;;10.30;9.40;;;4.60;99.90;;;;;;5073404;28;20800;-76
2021/04/16 04:37:36;;;;;;;9.23;8.43;;;4.60;99.90;;;;;;5074029;28;20656;-75
2021/04/16 04:40:04;;;;;;;9.10;8.27;;;4.60;99.90;;;;;;5077224;28;20541;-76
2021/04/16 04:42:30;;;;;;;9.80;8.80;;;4.60;99.90;;;;;;5076086;28;20972;-76
2021/04/16 04:44:55;;;;;;;10.60;9.47;;;4.50;99.90;;;;;;5082721;28;20481;-76
2021/04/16 04:47:21;;;;;;;17.33;10.23;;;4.50;99.90;;;;;;5093629;28;20171;-76
2021/04/16 04:49:46;;;;;;;9.30;8.40;;;4.50;99.90;;;;;;5081673;28;20183;-76
2021/04/16 04:52:18;;;;;;;10.60;9.50;;;4.50;99.90;;;;;;5073456;28;20223;-76
2021/04/16 04:54:47;;;;;;;11.00;9.90;;;4.50;99.90;;;;;;5073589;28;20199;-76
2021/04/16 04:57:13;;;;;;;10.40;9.40;;;4.50;99.90;;;;;;5083957;28;20413;-76
2021/04/16 04:59:38;;;;;;;11.53;10.37;;;4.50;99.90;;;;;;5080152;28;20460;-76
2021/04/16 05:02:04;;;;;;;10.20;9.20;;;4.50;99.90;;;;;;5072747;28;20464;-76
2021/04/16 05:04:30;;;;;;;11.40;10.20;;;4.50;99.90;;;;;;5072840;28;20167;-76
2021/04/16 05:06:55;;;;;;;13.00;11.10;;;4.50;99.90;;;;;;5073072;28;20156;-76
2021/04/16 05:09:21;;;;;;;11.70;9.80;;;4.50;99.90;;;;;;5072989;28;20259;-76
2021/04/16 05:11:46;;;;;;;10.60;9.50;;;4.50;99.90;;;;;;5085436;28;20229;-76
2021/04/16 05:14:12;;;;;;;10.47;9.43;;;4.50;99.90;;;;;;5093144;28;20195;-76
2021/04/16 05:16:37;;;;;;;10.30;9.20;;;4.60;99.90;;;;;;5079902;28;20215;-76
2021/04/16 05:19:03;;;;;;;12.47;11.17;;;4.60;99.90;;;;;;5072826;28;20235;-76
2021/04/16 05:21:29;;;;;;;13.33;11.33;;;4.60;99.90;;;;;;5072906;28;20168;-76
2021/04/16 05:23:56;;;;;;;11.20;10.00;;;4.70;99.90;;;;;;5072762;28;20168;-76
2021/04/16 05:26:22;;;;;;;10.03;9.13;;;4.70;99.90;;;;;;5072440;28;20469;-76
2021/04/16 05:28:48;;;;;;;12.33;10.80;;;4.70;99.90;;;;;;5079647;28;20454;-76
2021/04/16 05:31:13;;;;;;;11.80;10.20;;;4.80;99.90;;;;;;5082734;28;20416;-76
2021/04/16 05:33:39;;;;;;;12.10;10.83;;;4.80;99.90;;;;;;5088369;28;20210;-76
2021/04/16 05:36:05;;;;;;;11.50;10.30;;;4.90;99.90;;;;;;5072994;28;20528;-76
2021/04/16 05:38:30;;;;;;;11.47;10.37;;;4.90;99.90;;;;;;5072631;28;20568;-76
2021/04/16 05:40:56;;;;;;;14.13;10.23;;;5.00;99.90;;;;;;5072799;28;20160;-76
2021/04/16 05:43:21;;;;;;;11.37;10.27;;;5.00;99.90;;;;;;5072642;28;20164;-76
2021/04/16 05:45:47;;;;;;;11.57;9.43;;;5.10;99.90;;;;;;5072643;28;20192;-76
2021/04/16 05:48:12;;;;;;;10.93;9.27;;;5.10;99.90;;;;;;5070704;28;20707;-76
2021/04/16 05:50:38;;;;;;;9.90;8.90;;;5.10;99.90;;;;;;5078978;28;20583;-76
2021/04/16 05:53:04;;;;;;;11.60;9.10;;;5.20;99.90;;;;;;5086901;27;20191;-76
2021/04/16 05:55:30;;;;;;;11.03;9.70;;;5.30;99.90;;;;;;5089128;28;20421;-76
2021/04/16 05:57:56;;;;;;;13.50;10.60;;;5.30;99.90;;;;;;5089658;28;20269;-76
2021/04/16 06:00:23;;;;;;;11.67;9.77;;;5.30;99.90;;;;;;5079621;28;20874;-76
2021/04/16 06:02:48;;;;;;;12.30;9.90;;;5.40;99.90;;;;;;5086546;28;20516;-76
2021/04/16 06:05:17;;;;;;;11.83;9.97;;;5.40;99.90;;;;;;5081699;28;20576;-76
2021/04/16 06:07:44;;;;;;;10.60;9.50;;;5.50;99.90;;;;;;5079748;28;20179;-76
2021/04/16 06:10:11;;;;;;;12.07;10.77;;;5.60;99.90;;;;;;5079295;28;20416;-76
2021/04/16 06:12:37;;;;;;;10.63;9.63;;;5.70;99.90;;;;;;5094785;28;20398;-76
2021/04/16 06:15:08;;;;;;;13.30;10.10;;;5.70;99.90;;;;;;5078452;28;20457;-76
2021/04/16 06:17:34;;;;;;;13.20;10.67;;;5.80;99.90;;;;;;5076801;28;20406;-76
2021/04/16 06:20:00;;;;;;;9.50;8.60;;;5.80;99.90;;;;;;5075816;28;20413;-76
2021/04/16 06:22:26;;;;;;;10.40;9.40;;;5.90;99.90;;;;;;5075931;28;20840;-76
2021/04/16 06:24:52;;;;;;;9.63;8.73;;;6.00;99.90;;;;;;5075695;28;20523;-76
2021/04/16 06:27:19;;;;;;;9.67;8.77;;;6.00;99.90;;;;;;5075967;28;20402;-76
2021/04/16 06:29:44;;;;;;;10.50;8.43;;;6.10;99.90;;;;;;5075650;28;20180;-76
2021/04/16 06:32:13;;;;;;;9.83;8.93;;;6.20;99.90;;;;;;5075868;28;20398;-76
2021/04/16 06:34:39;;;;;;;9.90;8.20;;;6.20;99.90;;;;;;5076482;28;20167;-76
2021/04/16 06:37:04;;;;;;;8.80;7.90;;;6.30;99.90;;;;;;5075907;28;20398;-76
2021/04/16 06:39:30;;;;;;;9.50;8.33;;;6.40;99.90;;;;;;5075936;28;20168;-75
2021/04/16 06:41:57;;;;;;;10.30;8.30;;;6.40;99.90;;;;;;5075835;28;20234;-75
2021/04/16 06:44:26;;;;;;;11.30;9.50;;;6.50;99.90;;;;;;5075567;28;20216;-75
2021/04/16 06:49:50;;;;;;;10.40;8.40;;;6.40;99.90;;;;;;5154009;27;21011;-67
2021/04/16 06:52:40;;;;;;;11.60;9.03;;;6.30;99.90;;;;;;5152119;27;20407;-68
2021/04/16 06:57:47;;;;;;;9.43;8.47;;;6.30;99.90;;;;;;5110947;27;21033;-68
2021/04/16 07:03:05;;;;;;;9.03;8.13;;;6.20;99.90;;;;;;5077553;27;20528;-69
2021/04/16 07:05:36;;;;;;;8.50;7.70;;;6.30;99.90;;;;;;5070933;28;20432;-69
2021/04/16 07:08:03;;;;;;;9.87;8.40;;;6.30;99.90;;;;;;5070458;28;20901;-66
2021/04/16 07:10:33;;;;;;;9.77;7.47;;;6.30;99.90;;;;;;5062376;28;20414;-66
2021/04/16 07:13:00;;;;;;;9.50;7.17;;;6.40;99.90;;;;;;5070224;28;20879;-66
2021/04/16 07:15:40;;;;;;;9.17;8.27;;;6.40;99.90;;;;;;5070189;28;20426;-68
2021/04/16 07:18:06;;;;;;;8.33;7.13;;;6.50;99.90;;;;;;5072061;28;20402;-66
2021/04/16 07:20:32;;;;;;;8.73;7.83;;;6.50;99.90;;;;;;5070680;28;20882;-66
2021/04/16 07:22:59;;;;;;;10.00;9.00;;;6.50;99.90;;;;;;5052035;28;20438;-66
2021/04/16 07:28:12;;;;;;;10.93;8.03;;;6.60;99.90;;;;;;5110929;27;20502;-68
2021/04/16 07:41:43;;;;;;;10.63;7.63;;;7.00;99.90;;;;;;5089316;27;20515;-68
2021/04/16 07:44:24;;;;;;;12.20;8.33;;;7.30;99.90;;;;;;5074823;28;20406;-68
2021/04/16 07:46:53;;;;;;;11.30;8.97;;;7.60;99.90;;;;;;5071073;28;20383;-68
2021/04/16 07:49:24;;;;;;;12.03;10.07;;;7.90;99.90;;;;;;5069761;28;20444;-68
2021/04/16 07:51:53;;;;;;;10.17;8.73;;;8.10;99.90;;;;;;5069383;28;20390;-68
2021/04/16 07:54:27;;;;;;;10.33;9.00;;;8.20;99.90;;;;;;5069988;28;20474;-68
2021/04/16 07:57:12;;;;;;;11.67;8.67;;;8.30;99.50;;;;;;5070113;28;20395;-68
2021/04/16 07:59:56;;;;;;;10.63;8.50;;;8.40;99.10;;;;;;5070655;28;20497;-68
2021/04/16 08:02:27;;;;;;;7.87;7.07;;;8.70;97.90;;;;;;5071573;28;20469;-68
2021/04/16 08:04:53;;;;;;;7.00;6.30;;;8.90;97.20;;;;;;5069995;28;20412;-68
2021/04/16 08:07:30;;;;;;;7.97;7.13;;;9.20;96.30;;;;;;5070004;28;20485;-69
2021/04/16 08:09:57;;;;;;;7.67;6.50;;;9.50;94.90;;;;;;5069685;28;20176;-68
2021/04/16 08:12:25;;;;;;;11.70;9.07;;;9.80;93.70;;;;;;5069825;28;20403;-68
2021/04/16 08:15:10;;;;;;;12.23;8.13;;;10.00;92.20;;;;;;5070803;28;20397;-68
2021/04/16 08:17:36;;;;;;;7.70;5.77;;;10.20;90.10;;;;;;5079453;28;20441;-68
2021/04/16 08:20:32;;;;;;;7.40;4.97;;;10.40;89.90;;;;;;5088238;28;20791;-68
2021/04/16 08:22:58;;;;;;;5.00;4.40;;;10.50;87.30;;;;;;5084198;28;20167;-69
2021/04/16 08:25:36;;;;;;;5.43;5.00;;;10.70;87.50;;;;;;5073327;28;20513;-69
2021/04/16 08:28:08;;;;;;;6.17;5.57;;;10.80;85.40;;;;;;5083821;28;20414;-69
2021/04/16 08:41:32;;;;;;;4.80;3.80;;;11.60;75.10;;;;;;5090546;28;20571;-68
2021/04/16 08:44:03;;;;;;;7.83;4.43;;;11.80;72.80;;;;;;5092646;28;20397;-68
2021/04/16 08:46:48;;;;;;;4.50;3.40;;;12.20;71.20;;;;;;5091774;28;20442;-68
2021/04/16 08:52:01;;;;;;;4.50;3.90;;;12.40;64.80;;;;;;5097929;27;21031;-68
2021/04/16 08:54:31;;;;;;;4.67;4.27;;;12.40;63.10;;;;;;5090852;28;20409;-68
2021/04/16 08:57:09;;;;;;;7.67;4.20;;;12.40;62.90;;;;;;5090723;28;20774;-68
2021/04/16 08:59:46;;;;;;;4.10;3.80;;;12.40;62.30;;;;;;5092206;28;20422;-68
2021/04/16 09:02:19;;;;;;;5.17;4.40;;;12.30;62.40;;;;;;5090402;28;20833;-68
2021/04/16 09:04:52;;;;;;;4.87;4.43;;;12.30;62.60;;;;;;5090371;28;20391;-68
2021/04/16 09:07:40;;;;;;;5.60;4.40;;;12.20;62.20;;;;;;5090309;28;20442;-68
2021/04/16 09:13:04;;;;;;;5.57;4.40;;;12.10;62.40;;;;;;5099511;27;20522;-69
2021/04/16 09:18:30;;;;;;;5.07;4.57;;;11.90;63.70;;;;;;5089423;28;20533;-68
2021/04/16 09:26:09;;;;;;;4.70;4.20;;;11.80;63.80;;;;;;5096976;27;20521;-68
2021/04/16 09:28:54;;;;;;;5.57;4.03;;;11.50;63.40;;;;;;5091702;28;20387;-68
2021/04/16 09:34:14;;;;;;;6.10;4.33;;;11.50;63.40;;;;;;5131374;27;20503;-68
2021/04/16 09:36:43;;;;;;;4.77;4.20;;;11.50;62.80;;;;;;5131475;28;20401;-68
2021/04/16 09:39:15;;;;;;;5.50;3.50;;;11.60;62.90;;;;;;5133225;28;20379;-68
2021/04/16 09:41:44;;;;;;;5.77;4.00;;;11.70;60.60;;;;;;5129342;28;20416;-68
2021/04/16 09:47:07;;;;;;;5.37;3.30;;;11.60;60.40;;;;;;5111029;27;20504;-67
2021/04/16 09:49:37;;;;;;;3.97;3.57;;;11.60;60.20;;;;;;5110655;28;20895;-67
2021/04/16 09:55:42;;;;;;;3.40;3.10;;;11.60;59.90;;;;;;5091607;28;20560;-68
2021/04/16 09:58:09;;;;;;;7.40;3.40;;;11.70;58.80;;;;;;5090632;28;20394;-68
2021/04/16 10:06:32;;;;;;;5.10;3.43;;;12.10;57.80;;;;;;5131379;27;20530;-68
2021/04/16 10:12:12;;;;;;;4.27;3.00;;;12.10;55.00;;;;;;5112456;27;20562;-67
2021/04/16 10:14:39;;;;;;;3.73;3.00;;;12.10;55.50;;;;;;5110857;28;20410;-67
2021/04/16 10:17:15;;;;;;;4.97;4.43;;;12.10;55.40;;;;;;5107693;28;20415;-67
2021/04/16 10:19:51;;;;;;;3.63;3.33;;;12.10;55.20;;;;;;5103185;28;20400;-67
2021/04/16 10:26:15;;;;;;;4.00;3.00;;;11.90;54.60;;;;;;5109463;27;20509;-68
2021/04/16 10:43:39;;;;;;;3.30;3.00;;;11.90;54.50;;;;;;5120493;27;20581;-68
2021/04/16 11:00:38;;;;;;;2.60;2.23;;;11.90;52.30;;;;;;5063485;28;20530;-68
2021/04/16 12:38:24;;;;;;;2.70;2.00;;;11.70;50.10;;;;;;5089131;28;20417;-67
2021/04/16 12:40:51;;;;;;;2.70;2.43;;;11.80;49.80;;;;;;5089687;28;20393;-67
2021/04/16 12:43:17;;;;;;;2.77;2.53;;;11.90;50.00;;;;;;5089639;28;20808;-67
2021/04/16 12:45:42;;;;;;;2.83;2.53;;;12.10;49.60;;;;;;5089780;28;20409;-67
2021/04/16 12:48:08;;;;;;;5.10;2.30;;;12.20;48.90;;;;;;5089338;28;20214;-67
2021/04/16 12:50:34;;;;;;;5.87;2.23;;;12.30;48.10;;;;;;5089872;28;20175;-67
2021/04/16 12:53:00;;;;;;;3.83;2.60;;;12.30;47.90;;;;;;5089589;28;20182;-67
2021/04/16 12:55:26;;;;;;;2.73;2.50;;;12.20;48.60;;;;;;5089495;28;20159;-67
2021/04/16 12:57:56;;;;;;;3.40;2.43;;;12.20;48.60;;;;;;5089317;28;20453;-67
2021/04/16 13:03:20;;;;;;;4.83;3.40;;;12.10;48.90;;;;;;5131674;27;20565;-68
2021/04/16 13:05:48;;;;;;;2.60;2.40;;;12.00;49.40;;;;;;5128513;28;20411;-68
2021/04/16 13:08:14;;;;;;;3.40;2.77;;;12.00;50.00;;;;;;5126730;28;20490;-68
2021/04/16 13:10:39;;;;;;;2.63;2.43;;;12.00;50.20;;;;;;5131469;28;20500;-68
2021/04/16 13:13:06;;;;;;;6.53;2.73;;;12.10;50.50;;;;;;5131744;28;20204;-68
2021/04/16 13:15:31;;;;;;;3.60;2.97;;;12.10;50.60;;;;;;5131251;28;20601;-68
2021/04/16 13:18:00;;;;;;;5.83;3.87;;;12.10;50.50;;;;;;5131268;28;20383;-68
2021/04/16 13:20:28;;;;;;;5.67;3.30;;;12.10;50.50;;;;;;5132260;28;20543;-68
2021/04/16 13:22:54;;;;;;;5.70;2.67;;;12.20;50.90;;;;;;5130266;28;20812;-68
2021/04/16 13:25:24;;;;;;;5.00;3.10;;;12.30;51.30;;;;;;5130937;28;20396;-68
2021/04/16 13:27:50;;;;;;;6.60;3.87;;;12.20;51.10;;;;;;5130794;28;20392;-68
2021/04/16 13:30:19;;;;;;;5.13;3.63;;;12.20;50.80;;;;;;5131362;28;20406;-68
2021/04/16 13:32:47;;;;;;;4.93;4.30;;;12.20;50.40;;;;;;5131179;28;20388;-68
2021/04/16 13:35:20;;;;;;;5.67;4.10;;;12.10;50.00;;;;;;5132064;28;20541;-68
2021/04/16 13:37:46;;;;;;;3.87;3.33;;;12.00;50.60;;;;;;5130886;28;20384;-68
2021/04/16 13:40:13;;;;;;;4.67;3.83;;;12.00;51.00;;;;;;5129949;28;20444;-68
2021/04/16 13:42:39;;;;;;;4.70;3.90;;;11.90;51.00;;;;;;5130695;28;20546;-68
2021/04/16 13:45:05;;;;;;;3.97;3.20;;;11.90;51.30;;;;;;5128173;28;20414;-68
2021/04/16 13:47:34;;;;;;;4.00;3.60;;;11.90;51.70;;;;;;5120230;28;20501;-68
2021/04/16 13:50:00;;;;;;;4.27;3.97;;;11.90;51.80;;;;;;5115354;28;20498;-68
2021/04/16 13:52:26;;;;;;;4.53;4.13;;;12.00;51.70;;;;;;5110255;28;20471;-68
2021/04/16 13:54:52;;;;;;;3.67;3.37;;;12.10;52.00;;;;;;5110028;28;20487;-68
2021/04/16 13:57:19;;;;;;;4.20;3.90;;;12.10;52.30;;;;;;5110367;28;20487;-68
2021/04/16 13:59:46;;;;;;;6.13;4.23;;;12.20;51.90;;;;;;5109768;28;20303;-68
2021/04/16 14:02:25;;;;;;;3.50;3.20;;;12.30;52.20;;;;;;5110346;28;20543;-68
2021/04/16 14:04:51;;;;;;;4.80;4.30;;;12.30;51.10;;;;;;5110451;28;20953;-68
2021/04/16 14:07:17;;;;;;;4.30;3.90;;;12.40;51.50;;;;;;5109689;28;20419;-68
2021/04/16 14:09:43;;;;;;;5.53;4.13;;;12.50;51.50;;;;;;5109665;28;20392;-68
2021/04/16 14:12:11;;;;;;;5.27;3.60;;;12.50;51.30;;;;;;5108739;28;20479;-68
2021/04/16 14:14:37;;;;;;;3.97;3.50;;;12.40;51.40;;;;;;5105883;28;20778;-68
2021/04/16 14:17:10;;;;;;;3.27;3.00;;;12.40;51.50;;;;;;5117358;28;20414;-68
2021/04/16 14:20:02;;;;;;;4.40;3.83;;;12.40;52.00;;;;;;5116839;28;20400;-68
2021/04/16 14:22:36;;;;;;;4.30;3.90;;;12.40;50.80;;;;;;5116220;28;20439;-68
2021/04/16 14:25:03;;;;;;;4.97;3.67;;;12.40;50.10;;;;;;5116238;28;20396;-68
2021/04/16 14:27:29;;;;;;;6.40;3.17;;;12.30;50.20;;;;;;5114196;28;20420;-68
2021/04/16 14:29:54;;;;;;;4.03;2.70;;;12.30;50.30;;;;;;5106445;28;20445;-68
2021/04/16 14:32:24;;;;;;;5.33;4.53;;;12.20;50.70;;;;;;5109225;28;20261;-68
2021/04/16 14:34:51;;;;;;;3.13;2.77;;;12.10;51.00;;;;;;5095612;28;20296;-68
2021/04/16 14:37:16;;;;;;;5.63;3.40;;;12.10;51.30;;;;;;5109124;28;20407;-68
2021/04/16 14:39:42;;;;;;;5.10;3.70;;;12.00;51.80;;;;;;5114114;28;20480;-68
2021/04/16 14:42:10;;;;;;;5.10;3.70;;;12.00;52.20;;;;;;5114805;28;20174;-67
2021/04/16 14:44:35;;;;;;;4.30;3.20;;;11.90;52.30;;;;;;5115144;28;20573;-68
2021/04/16 14:47:01;;;;;;;3.83;3.10;;;11.90;52.30;;;;;;5115260;28;20407;-68
2021/04/16 14:49:30;;;;;;;3.50;3.20;;;11.90;52.60;;;;;;5114761;28;20661;-67
2021/04/16 14:51:58;;;;;;;4.00;3.70;;;11.80;52.50;;;;;;5115085;28;20158;-68
2021/04/16 14:54:28;;;;;;;6.00;3.67;;;11.80;53.00;;;;;;5115903;28;20435;-68
2021/04/16 14:56:55;;;;;;;4.90;3.77;;;11.80;53.20;;;;;;5115567;28;20404;-68
2021/04/16 14:59:25;;;;;;;3.97;3.67;;;11.90;52.80;;;;;;5115699;28;20452;-68
2021/04/16 15:01:51;;;;;;;7.50;4.30;;;12.00;52.80;;;;;;5116759;28;20463;-68
2021/04/16 15:04:19;;;;;;;3.60;3.30;;;12.10;52.20;;;;;;5115720;28;20953;-68
2021/04/16 15:06:45;;;;;;;4.40;4.00;;;12.00;51.50;;;;;;5111418;28;20546;-68
2021/04/16 15:09:15;;;;;;;4.30;3.63;;;12.00;51.40;;;;;;5095024;28;20394;-68
2021/04/16 15:11:47;;;;;;;4.17;3.77;;;11.90;51.80;;;;;;5095130;28;20417;-68
2021/04/16 15:14:17;;;;;;;3.97;3.67;;;11.80;51.50;;;;;;5095486;28;20399;-68
2021/04/16 15:16:46;;;;;;;3.70;3.40;;;11.80;51.10;;;;;;5096014;28;20399;-68
2021/04/16 15:19:16;;;;;;;5.00;3.40;;;11.80;51.20;;;;;;5094742;28;20446;-68
2021/04/16 15:21:41;;;;;;;7.23;4.40;;;11.90;51.20;;;;;;5095111;28;20982;-67
2021/04/16 15:24:08;;;;;;;5.53;3.10;;;12.00;51.40;;;;;;5093906;28;20474;-68
2021/04/16 15:26:34;;;;;;;4.47;3.40;;;12.10;51.80;;;;;;5094284;28;20516;-68
2021/04/16 15:29:04;;;;;;;9.70;6.27;;;12.10;51.30;;;;;;5096838;28;20389;-68
2021/04/16 15:31:37;;;;;;;4.57;3.83;;;12.10;51.30;;;;;;5095421;28;20467;-68
2021/04/16 15:53:16;;;;;;;7.63;6.10;;;11.90;52.50;;;;;;5131406;27;21081;-68
2021/04/16 15:55:42;;;;;;;11.10;9.37;;;11.80;52.60;;;;;;5128636;28;20450;-69
2021/04/16 15:58:13;;;;;;;5.23;4.73;;;11.80;52.10;;;;;;5111522;28;20431;-66
2021/04/16 16:00:46;;;;;;;5.30;4.80;;;11.80;52.20;;;;;;5111786;28;20442;-66
2021/04/16 16:03:12;;;;;;;4.77;4.27;;;11.90;52.00;;;;;;5110682;28;20384;-66
2021/04/16 16:05:40;;;;;;;6.63;3.97;;;11.90;52.10;;;;;;5110767;28;20841;-66
2021/04/16 16:08:06;;;;;;;4.80;3.50;;;11.90;52.20;;;;;;5110662;28;20408;-66
2021/04/16 16:10:32;;;;;;;3.80;3.40;;;11.90;52.40;;;;;;5111568;28;20376;-66
2021/04/16 16:13:01;;;;;;;4.53;4.10;;;11.80;52.60;;;;;;5116286;28;20454;-66
2021/04/16 16:18:10;;;;;;;7.13;4.97;;;11.80;52.80;;;;;;5110878;27;21038;-68
2021/04/16 16:20:36;;;;;;;5.83;3.80;;;11.70;52.80;;;;;;5111007;28;20876;-68
2021/04/16 16:23:07;;;;;;;4.30;3.90;;;11.60;52.90;;;;;;5110850;28;20842;-68
2021/04/16 16:25:34;;;;;;;6.70;6.03;;;11.50;52.80;;;;;;5111538;28;20411;-68
2021/04/16 16:28:01;;;;;;;8.80;7.47;;;11.40;53.10;;;;;;5111770;28;20388;-68
2021/04/16 16:30:31;;;;;;;7.50;4.50;;;11.40;53.00;;;;;;5101887;28;20800;-68
2021/04/16 16:32:57;;;;;;;6.07;5.13;;;11.30;52.60;;;;;;5090556;28;20955;-68
2021/04/16 16:35:26;;;;;;;4.83;4.00;;;11.30;52.80;;;;;;5090281;28;20377;-68
2021/04/16 16:37:52;;;;;;;4.07;3.50;;;11.30;53.20;;;;;;5090138;28;20183;-68